Time;durP1;ratioP1;P1;durP2;ratioP2;P2;SDS_P1;SDS_P2;PMS_P1;PMS_P2;Temp;Humidity;BMP_temperature;BMP_pressure;BME280_temperature;BME280_humidity;BME280_pressure;Samples;Min_cycle;Max_cycle;Signal;HPM_P1;HPM_P2
2023/06/09 00:00:57;;;;;;;;;;;;;;;23.80;41.35;100672.63;4119448;28;20433;-67
2023/06/09 00:02:59;;;;;;;;;;;;;;;23.80;41.26;100679.84;4112248;28;19926;-67
2023/06/09 00:05:05;;;;;;;;;;;;;;;23.81;40.97;100670.78;4111759;28;19933;-68
2023/06/09 00:07:07;;;;;;;;;;;;;;;23.81;40.79;100665.44;4112454;28;19949;-67
2023/06/09 00:09:09;;;;;;;;;;;;;;;23.80;41.25;100672.63;4112698;28;19927;-67
2023/06/09 00:11:11;;;;;;;;;;;;;;;23.79;41.23;100664.72;4112180;28;19926;-67
2023/06/09 00:13:15;;;;;;;;;;;;;;;23.79;41.11;100664.72;4113901;28;19977;-67
2023/06/09 00:15:20;;;;;;;;;;;;;;;23.79;40.80;100656.66;4114473;28;20356;-67
2023/06/09 00:17:24;;;;;;;;;;;;;;;23.75;41.13;100654.25;4115030;28;19971;-67
2023/06/09 00:19:27;;;;;;;;;;;;;;;23.73;41.38;100653.56;4115433;28;20013;-68
2023/06/09 00:21:29;;;;;;;;;;;;;;;23.72;41.08;100651.00;4115296;28;19930;-67
2023/06/09 00:23:31;;;;;;;;;;;;;;;23.58;41.24;100631.63;4115111;28;20388;-67
2023/06/09 00:25:32;;;;;;;;;;;;;;;23.69;41.39;100652.13;4114231;28;19976;-67
2023/06/09 00:27:34;;;;;;;;;;;;;;;23.69;41.25;100651.28;4114884;28;19969;-67
2023/06/09 00:29:35;;;;;;;;;;;;;;;23.67;41.87;100658.63;4114804;28;20332;-67
2023/06/09 00:31:37;;;;;;;;;;;;;;;23.66;41.82;100652.44;4114823;28;19949;-67
2023/06/09 00:33:39;;;;;;;;;;;;;;;23.66;41.66;100647.06;4115098;28;19995;-67
2023/06/09 00:35:43;;;;;;;;;;;;;;;23.66;41.40;100648.88;4113838;28;19973;-67
2023/06/09 00:37:46;;;;;;;;;;;;;;;23.64;41.64;100649.03;4115016;28;19926;-68
2023/06/09 00:39:48;;;;;;;;;;;;;;;23.64;41.68;100642.81;4115036;28;19934;-68
2023/06/09 00:41:49;;;;;;;;;;;;;;;23.64;41.60;100649.03;4114898;28;19926;-67
2023/06/09 00:43:53;;;;;;;;;;;;;;;23.63;41.55;100644.63;4115035;28;20398;-68
2023/06/09 00:45:55;;;;;;;;;;;;;;;23.63;41.55;100644.63;4113708;28;20299;-67
2023/06/09 00:47:57;;;;;;;;;;;;;;;23.62;41.49;100645.63;4114848;28;20277;-67
2023/06/09 00:49:58;;;;;;;;;;;;;;;23.61;41.50;100643.97;4114734;28;20058;-67
2023/06/09 00:52:00;;;;;;;;;;;;;;;23.59;41.55;100638.69;4120781;28;20022;-67
2023/06/09 00:54:02;;;;;;;;;;;;;;;23.58;41.40;100626.25;4130715;28;20450;-67
2023/06/09 00:56:05;;;;;;;;;;;;;;;23.59;41.55;100632.50;4129725;28;20012;-66
2023/06/09 00:58:08;;;;;;;;;;;;;;;23.58;41.74;100623.59;4131094;28;20391;-67
2023/06/09 01:00:13;;;;;;;;;;;;;;;23.58;41.40;100628.13;4127620;28;20311;-67
2023/06/09 01:02:15;;;;;;;;;;;;;;;23.57;41.83;100629.97;4114545;28;20017;-68
2023/06/09 01:04:18;;;;;;;;;;;;;;;23.57;41.76;100626.41;4114300;28;19926;-68
2023/06/09 01:06:39;;;;;;;;;;;;;;;23.56;41.71;100633.63;4114070;28;19926;-67
2023/06/09 01:08:44;;;;;;;;;;;;;;;23.53;41.59;100623.16;4114771;28;19980;-68
2023/06/09 01:10:48;;;;;;;;;;;;;;;23.53;41.57;100619.66;4114515;28;19965;-67
2023/06/09 01:12:57;;;;;;;;;;;;;;;23.52;41.98;100629.53;4114705;28;19926;-67
2023/06/09 01:15:08;;;;;;;;;;;;;;;23.52;41.95;100623.31;4113382;28;20387;-66
2023/06/09 01:17:13;;;;;;;;;;;;;;;23.49;41.81;100610.16;4114367;28;20017;-66
2023/06/09 01:19:34;;;;;;;;;;;;;;;23.48;42.03;100620.06;4114599;28;20031;-69
2023/06/09 01:21:42;;;;;;;;;;;;;;;23.48;41.68;100609.34;4114368;28;19926;-66
2023/06/09 01:24:04;;;;;;;;;;;;;;;23.47;42.10;100604.13;4114407;28;20263;-67
2023/06/09 01:26:07;;;;;;;;;;;;;;;23.45;41.87;100610.47;4113292;28;19933;-66
2023/06/09 01:28:20;;;;;;;;;;;;;;;23.44;41.70;100605.25;4114233;28;20418;-65
2023/06/09 01:30:32;;;;;;;;;;;;;;;23.43;41.95;100603.56;4113654;28;20273;-67
2023/06/09 01:32:34;;;;;;;;;;;;;;;23.41;41.73;100600.16;4114356;28;19958;-66
2023/06/09 01:34:36;;;;;;;;;;;;;;;23.40;42.10;100607.38;4113515;28;20391;-67
2023/06/09 01:36:38;;;;;;;;;;;;;;;23.41;42.02;100602.84;4113933;28;19930;-67
2023/06/09 01:38:40;;;;;;;;;;;;;;;23.40;41.67;100603.81;4114325;28;20074;-67
2023/06/09 01:40:43;;;;;;;;;;;;;;;23.39;42.03;100605.66;4114235;28;19933;-68
2023/06/09 01:42:49;;;;;;;;;;;;;;;23.37;41.73;100599.59;4114105;28;19932;-67
2023/06/09 01:44:51;;;;;;;;;;;;;;;23.37;41.50;100596.91;4113085;28;20452;-67
2023/06/09 01:46:52;;;;;;;;;;;;;;;23.35;42.19;100598.03;4113961;28;19926;-67
2023/06/09 01:49:00;;;;;;;;;;;;;;;23.35;42.25;100596.19;4114162;28;19949;-67
2023/06/09 01:51:05;;;;;;;;;;;;;;;23.34;42.29;100597.16;4113959;28;19926;-67
2023/06/09 01:53:14;;;;;;;;;;;;;;;23.33;41.83;100586.59;4128914;28;19926;-66
2023/06/09 01:55:38;;;;;;;;;;;;;;;23.31;42.11;100594.78;4129402;28;19926;-66
2023/06/09 01:57:52;;;;;;;;;;;;;;;23.31;41.99;100594.78;4129936;28;19926;-66
2023/06/09 01:59:57;;;;;;;;;;;;;;;23.30;42.27;100595.75;4129596;28;19926;-68
2023/06/09 02:02:00;;;;;;;;;;;;;;;23.19;42.23;100564.53;4113945;28;19930;-66
2023/06/09 02:04:02;;;;;;;;;;;;;;;23.28;42.13;100590.53;4113962;28;19950;-66
2023/06/09 02:06:05;;;;;;;;;;;;;;;23.28;42.33;100582.50;4112935;28;19972;-67
2023/06/09 02:08:08;;;;;;;;;;;;;;;23.27;42.19;100594.22;4113560;28;19926;-66
2023/06/09 02:10:10;;;;;;;;;;;;;;;23.26;42.10;100591.69;4113928;28;19933;-66
2023/06/09 02:12:12;;;;;;;;;;;;;;;23.26;42.23;100591.69;4113615;28;20028;-67
2023/06/09 02:14:15;;;;;;;;;;;;;;;23.25;42.38;100582.75;4112296;28;19926;-67
2023/06/09 02:16:18;;;;;;;;;;;;;;;23.27;42.00;100590.69;4111424;28;19926;-66
2023/06/09 02:18:21;;;;;;;;;;;;;;;23.25;42.24;100595.34;4113825;28;19980;-66
2023/06/09 02:20:23;;;;;;;;;;;;;;;23.24;42.34;100593.66;4113661;28;19932;-66
2023/06/09 02:22:25;;;;;;;;;;;;;;;23.22;42.35;100584.88;4113709;28;20377;-67
2023/06/09 02:24:28;;;;;;;;;;;;;;;23.24;42.18;100588.28;4113389;28;19949;-66
2023/06/09 02:26:30;;;;;;;;;;;;;;;23.24;42.25;100583.75;4112841;28;19929;-66
2023/06/09 02:28:32;;;;;;;;;;;;;;;23.23;42.41;100581.22;4144422;28;20024;-67
2023/06/09 02:30:34;;;;;;;;;;;;;;;23.23;42.28;100576.72;4113303;28;19926;-66
2023/06/09 02:32:36;;;;;;;;;;;;;;;23.23;42.29;100573.16;4113562;28;19926;-66
2023/06/09 02:34:38;;;;;;;;;;;;;;;23.23;42.19;100579.41;4112903;28;20401;-69
2023/06/09 02:36:42;;;;;;;;;;;;;;;23.21;41.89;100576.00;4112671;28;19930;-67
2023/06/09 02:38:44;;;;;;;;;;;;;;;23.22;42.19;100577.69;4113400;28;19933;-67
2023/06/09 02:40:46;;;;;;;;;;;;;;;23.20;42.23;100568.09;4113305;28;20035;-67
2023/06/09 02:42:47;;;;;;;;;;;;;;;23.20;41.99;100570.78;4112956;28;20400;-66
2023/06/09 02:44:49;;;;;;;;;;;;;;;23.18;41.96;100565.53;4112556;28;20401;-67
2023/06/09 02:46:51;;;;;;;;;;;;;;;23.20;42.23;100566.25;4113259;28;20436;-67
2023/06/09 02:48:52;;;;;;;;;;;;;;;23.20;41.79;100565.41;4112691;28;20340;-67
2023/06/09 02:50:54;;;;;;;;;;;;;;;23.20;41.98;100560.88;4113321;28;20029;-67
2023/06/09 02:52:56;;;;;;;;;;;;;;;23.18;42.43;100562.84;4126408;28;19926;-67
2023/06/09 02:54:58;;;;;;;;;;;;;;;23.17;42.02;100563.84;4128381;28;19933;-67
2023/06/09 02:56:59;;;;;;;;;;;;;;;23.15;41.91;100557.75;4128734;28;19930;-67
2023/06/09 02:59:02;;;;;;;;;;;;;;;23.14;42.30;100564.09;4129156;28;19926;-67
2023/06/09 03:01:04;;;;;;;;;;;;;;;23.12;42.27;100556.19;4150493;28;19932;-67
2023/06/09 03:03:06;;;;;;;;;;;;;;;23.12;42.37;100560.69;4113225;28;20299;-67
2023/06/09 03:05:09;;;;;;;;;;;;;;;23.11;42.31;100561.69;4112087;28;19926;-67
2023/06/09 03:07:13;;;;;;;;;;;;;;;23.10;42.63;100566.22;4113035;28;19933;-67
2023/06/09 03:09:15;;;;;;;;;;;;;;;23.09;42.49;100559.16;4113227;28;19926;-67
2023/06/09 03:11:16;;;;;;;;;;;;;;;23.09;42.54;100563.69;4112896;28;19933;-67
2023/06/09 03:13:18;;;;;;;;;;;;;;;23.08;42.53;100565.50;4113030;28;20296;-67
2023/06/09 03:15:20;;;;;;;;;;;;;;;23.08;42.35;100568.19;4112299;28;19976;-67
2023/06/09 03:17:21;;;;;;;;;;;;;;;23.08;42.49;100570.03;4112944;28;19926;-66
2023/06/09 03:19:23;;;;;;;;;;;;;;;23.07;42.38;100565.66;4112898;28;19926;-67
2023/06/09 03:21:24;;;;;;;;;;;;;;;23.07;42.36;100569.16;4113079;28;19926;-67
2023/06/09 03:23:26;;;;;;;;;;;;;;;23.07;42.39;100562.97;4143944;28;19925;-67
2023/06/09 03:25:30;;;;;;;;;;;;;;;23.06;42.33;100572.84;4111782;28;19926;-67
2023/06/09 03:27:32;;;;;;;;;;;;;;;23.06;42.59;100572.00;4112727;28;19949;-66
2023/06/09 03:29:34;;;;;;;;;;;;;;;23.06;42.21;100569.31;4112818;28;19996;-65
2023/06/09 03:31:35;;;;;;;;;;;;;;;23.05;42.58;100568.47;4112874;28;19927;-67
2023/06/09 03:33:37;;;;;;;;;;;;;;;23.04;42.55;100569.47;4112913;28;19926;-67
2023/06/09 03:35:38;;;;;;;;;;;;;;;23.05;42.50;100567.63;4111758;28;19972;-67
2023/06/09 03:37:40;;;;;;;;;;;;;;;23.04;42.62;100569.47;4113008;28;19937;-67
2023/06/09 03:39:42;;;;;;;;;;;;;;;23.03;42.51;100569.59;4112635;28;19948;-67
2023/06/09 03:41:43;;;;;;;;;;;;;;;23.03;42.53;100564.25;4112918;28;19991;-67
2023/06/09 03:43:45;;;;;;;;;;;;;;;23.04;42.15;100560.53;4112630;28;20010;-66
2023/06/09 03:45:47;;;;;;;;;;;;;;;23.03;42.48;100561.56;4111936;28;20406;-67
2023/06/09 03:47:48;;;;;;;;;;;;;;;23.03;42.14;100558.88;4113727;28;19948;-67
2023/06/09 03:49:50;;;;;;;;;;;;;;;23.04;42.49;100560.53;4115717;28;19934;-66
2023/06/09 03:51:51;;;;;;;;;;;;;;;23.02;42.27;100559.84;4120188;28;19926;-67
2023/06/09 03:53:53;;;;;;;;;;;;;;;23.02;42.42;100571.41;4131533;28;20020;-67
2023/06/09 03:55:56;;;;;;;;;;;;;;;23.02;42.57;100571.41;4130668;28;19926;-68
2023/06/09 03:57:58;;;;;;;;;;;;;;;23.01;42.50;100572.41;4131501;28;19926;-67
2023/06/09 03:59:59;;;;;;;;;;;;;;;23.01;42.49;100558.16;4129943;28;20016;-68
2023/06/09 04:02:01;;;;;;;;;;;;;;;23.02;42.45;100563.38;4115517;28;20017;-67
2023/06/09 04:04:03;;;;;;;;;;;;;;;23.01;42.47;100561.69;4114337;28;19926;-68
2023/06/09 04:06:05;;;;;;;;;;;;;;;23.02;42.35;100562.53;4114347;28;19926;-67
2023/06/09 04:08:10;;;;;;;;;;;;;;;22.99;42.41;100569.03;4115398;28;19938;-66
2023/06/09 04:10:11;;;;;;;;;;;;;;;23.00;42.43;100573.38;4114965;28;19966;-67
2023/06/09 04:12:13;;;;;;;;;;;;;;;23.00;42.42;100569.88;4115325;28;19930;-67
2023/06/09 04:14:15;;;;;;;;;;;;;;;22.98;42.28;100565.50;4115394;28;20021;-67
2023/06/09 04:16:17;;;;;;;;;;;;;;;22.98;42.40;100570.03;4114405;28;19926;-66
2023/06/09 04:18:19;;;;;;;;;;;;;;;22.96;42.57;100558.56;4115297;28;19995;-68
2023/06/09 04:20:22;;;;;;;;;;;;;;;22.95;42.57;100559.56;4115325;28;19930;-66
2023/06/09 04:22:24;;;;;;;;;;;;;;;22.94;42.38;100564.09;4115182;28;19972;-67
2023/06/09 04:24:26;;;;;;;;;;;;;;;22.94;42.61;100564.09;4114789;28;19936;-67
2023/06/09 04:26:27;;;;;;;;;;;;;;;22.92;42.53;100566.03;4114364;28;19972;-66
2023/06/09 04:28:29;;;;;;;;;;;;;;;22.93;42.64;100569.56;4113798;28;19973;-67
2023/06/09 04:30:34;;;;;;;;;;;;;;;22.92;42.49;100568.72;4114820;28;19992;-67
2023/06/09 04:32:36;;;;;;;;;;;;;;;22.91;42.54;100571.56;4115059;28;19934;-67
2023/06/09 04:34:38;;;;;;;;;;;;;;;22.90;42.70;100581.41;4114943;28;19930;-67
2023/06/09 04:36:40;;;;;;;;;;;;;;;22.90;42.41;100583.25;4114047;28;19926;-67
2023/06/09 04:38:42;;;;;;;;;;;;;;;22.89;42.39;100574.38;4114874;28;19926;-67
2023/06/09 04:40:45;;;;;;;;;;;;;;;22.89;42.71;100578.88;4114886;28;19930;-67
2023/06/09 04:42:50;;;;;;;;;;;;;;;22.89;42.67;100579.75;4115113;28;19995;-67
2023/06/09 04:44:53;;;;;;;;;;;;;;;22.88;42.60;100591.47;4114705;28;19926;-67
2023/06/09 04:46:55;;;;;;;;;;;;;;;22.88;42.80;100579.88;4114108;28;19933;-67
2023/06/09 04:48:57;;;;;;;;;;;;;;;22.87;42.47;100576.34;4114874;28;19980;-66
2023/06/09 04:51:01;;;;;;;;;;;;;;;22.88;42.50;100580.72;4114718;28;19926;-66
2023/06/09 04:53:03;;;;;;;;;;;;;;;22.87;42.48;100589.75;4128611;28;19926;-67
2023/06/09 04:55:06;;;;;;;;;;;;;;;22.88;42.46;100585.22;4130297;28;20584;-67
2023/06/09 04:57:09;;;;;;;;;;;;;;;22.87;42.59;100579.03;4124304;28;19926;-67
2023/06/09 04:59:11;;;;;;;;;;;;;;;22.87;42.70;100584.41;4117064;28;19930;-67
2023/06/09 05:01:13;;;;;;;;;;;;;;;22.87;42.54;100587.06;4119348;28;19971;-67
2023/06/09 05:03:17;;;;;;;;;;;;;;;22.87;42.29;100583.53;4114671;28;19926;-67
2023/06/09 05:05:19;;;;;;;;;;;;;;;22.86;42.30;100580.00;4113722;28;20411;-67
2023/06/09 05:07:21;;;;;;;;;;;;;;;22.87;42.62;100583.53;4114303;28;19938;-67
2023/06/09 05:09:23;;;;;;;;;;;;;;;22.86;42.45;100580.00;4114694;28;19926;-67
2023/06/09 05:11:25;;;;;;;;;;;;;;;22.87;42.55;100583.53;4113246;28;19926;-66
2023/06/09 05:13:26;;;;;;;;;;;;;;;22.87;42.59;100586.22;4114695;28;20426;-67
2023/06/09 05:15:28;;;;;;;;;;;;;;;22.86;42.60;100579.19;4113680;28;19990;-66
2023/06/09 05:17:31;;;;;;;;;;;;;;;22.86;42.45;100582.69;4114294;28;19988;-67
2023/06/09 05:19:33;;;;;;;;;;;;;;;22.86;42.67;100579.19;4114592;28;19933;-67
2023/06/09 05:21:36;;;;;;;;;;;;;;;22.87;42.61;100581.72;4114425;28;19934;-67
2023/06/09 05:23:38;;;;;;;;;;;;;;;22.86;42.40;100584.53;4114516;28;19926;-67
2023/06/09 05:25:39;;;;;;;;;;;;;;;22.88;42.45;100587.91;4113669;28;20026;-67
2023/06/09 05:27:41;;;;;;;;;;;;;;;22.88;42.30;100588.78;4114159;28;19976;-67
2023/06/09 05:29:43;;;;;;;;;;;;;;;22.87;42.52;100583.53;4114278;28;19926;-67
2023/06/09 05:31:44;;;;;;;;;;;;;;;22.86;42.28;100584.53;4114332;28;19926;-67
2023/06/09 05:33:46;;;;;;;;;;;;;;;22.87;42.40;100591.56;4114353;28;19933;-67
2023/06/09 05:35:50;;;;;;;;;;;;;;;22.86;42.68;100590.75;4113124;28;20386;-67
2023/06/09 05:37:52;;;;;;;;;;;;;;;22.86;42.40;100588.06;4114132;28;19980;-66
2023/06/09 05:39:54;;;;;;;;;;;;;;;22.86;42.40;100588.06;4114248;28;19933;-67
2023/06/09 05:41:55;;;;;;;;;;;;;;;22.86;42.39;100596.09;4114267;28;19980;-67
2023/06/09 05:43:57;;;;;;;;;;;;;;;22.86;42.61;100597.94;4114076;28;19933;-67
2023/06/09 05:45:59;;;;;;;;;;;;;;;22.85;42.36;100599.75;4113145;28;19926;-67
2023/06/09 05:48:01;;;;;;;;;;;;;;;22.86;42.14;100595.28;4113930;28;19929;-67
2023/06/09 05:50:02;;;;;;;;;;;;;;;22.86;42.59;100597.94;4113690;28;19956;-67
2023/06/09 05:52:04;;;;;;;;;;;;;;;22.86;42.53;100601.47;4120359;28;19926;-67
2023/06/09 05:54:06;;;;;;;;;;;;;;;22.86;42.42;100603.31;4130065;28;19953;-68
2023/06/09 05:56:09;;;;;;;;;;;;;;;22.85;42.17;100605.13;4129097;28;19932;-68
2023/06/09 05:58:11;;;;;;;;;;;;;;;22.85;42.52;100610.50;4130039;28;20180;-68
2023/06/09 06:00:13;;;;;;;;;;;;;;;22.86;42.55;100611.34;4126842;28;20020;-68
2023/06/09 06:02:15;;;;;;;;;;;;;;;22.85;42.50;100607.81;4113934;28;19965;-67
2023/06/09 06:04:17;;;;;;;;;;;;;;;22.85;42.58;100613.16;4113882;28;19930;-67
2023/06/09 06:06:19;;;;;;;;;;;;;;;22.86;42.56;100604.16;4112680;28;20016;-67
2023/06/09 06:08:20;;;;;;;;;;;;;;;22.85;42.55;100606.97;4113996;28;19926;-68
2023/06/09 06:10:22;;;;;;;;;;;;;;;22.84;42.42;100603.44;4113149;28;19926;-67
2023/06/09 06:12:24;;;;;;;;;;;;;;;22.83;42.53;100607.09;4113741;28;19942;-67
2023/06/09 06:14:25;;;;;;;;;;;;;;;22.84;42.51;100608.78;4112631;28;20465;-65
2023/06/09 06:16:27;;;;;;;;;;;;;;;22.85;42.54;100612.34;4112893;28;19934;-66
2023/06/09 06:18:28;;;;;;;;;;;;;;;22.86;42.55;100608.69;4113802;28;19930;-67
2023/06/09 06:20:30;;;;;;;;;;;;;;;22.85;42.61;100607.81;4113325;28;20025;-67
2023/06/09 06:22:32;;;;;;;;;;;;;;;22.85;42.66;100604.28;4113665;28;19930;-66
2023/06/09 06:24:33;;;;;;;;;;;;;;;22.85;42.37;100606.97;4113555;28;20342;-66
2023/06/09 06:26:35;;;;;;;;;;;;;;;22.86;42.35;100596.09;4112639;28;19930;-67
2023/06/09 06:28:36;;;;;;;;;;;;;;;22.85;42.42;100597.09;4113374;28;19933;-67
2023/06/09 06:30:38;;;;;;;;;;;;;;;22.84;42.54;100600.75;4113729;28;19926;-66
2023/06/09 06:32:48;;;;;;;;;;;;;;;22.87;42.72;100599.63;4113389;28;20124;-66
2023/06/09 06:34:50;;;;;;;;;;;;;;;22.86;42.17;100589.91;4113334;28;19952;-67
2023/06/09 06:36:55;;;;;;;;;;;;;;;22.87;42.27;100599.63;4112859;28;20017;-66
2023/06/09 06:38:57;;;;;;;;;;;;;;;22.88;42.46;100593.28;4113528;28;20004;-65
2023/06/09 06:40:58;;;;;;;;;;;;;;;22.88;42.42;100594.13;4113464;28;20039;-67
2023/06/09 06:43:00;;;;;;;;;;;;;;;22.88;42.14;100596.81;4113246;28;19926;-66
2023/06/09 06:45:02;;;;;;;;;;;;;;;22.89;42.47;100592.28;4113312;28;19934;-66
2023/06/09 06:47:04;;;;;;;;;;;;;;;22.88;42.66;100593.28;4111550;28;19976;-66
2023/06/09 06:49:06;;;;;;;;;;;;;;;22.87;42.25;100589.75;4113064;28;20304;-66
2023/06/09 06:51:08;;;;;;;;;;;;;;;22.88;42.49;100598.63;4113626;28;19926;-67
2023/06/09 06:53:10;;;;;;;;;;;;;;;22.90;42.28;100602.88;4128523;28;19983;-67
2023/06/09 06:55:11;;;;;;;;;;;;;;;22.91;42.29;100604.56;4128161;28;20096;-67
2023/06/09 06:57:13;;;;;;;;;;;;;;;22.92;42.39;100603.59;4128401;28;19968;-67
2023/06/09 06:59:15;;;;;;;;;;;;;;;22.94;42.49;100606.13;4129277;28;20443;-66
2023/06/09 07:01:22;;;;;;;;;;;;;;;22.96;42.51;100596.13;4117618;28;19926;-67
2023/06/09 07:03:24;;;;;;;;;;;;;;;22.99;42.58;100595.84;4112782;28;19926;-67
2023/06/09 07:05:26;;;;;;;;;;;;;;;23.02;42.84;100595.56;4112919;28;19926;-67
2023/06/09 07:07:28;;;;;;;;;;;;;;;23.03;42.65;100589.22;4112624;28;19926;-67
2023/06/09 07:09:29;;;;;;;;;;;;;;;23.06;43.14;100601.50;4113189;28;19930;-67
2023/06/09 07:11:32;;;;;;;;;;;;;;;23.06;42.34;100597.00;4113207;28;19972;-67
2023/06/09 07:13:34;;;;;;;;;;;;;;;23.08;42.51;100594.16;4113178;28;20305;-67
2023/06/09 07:15:38;;;;;;;;;;;;;;;23.10;42.24;100602.94;4112195;28;19926;-68
2023/06/09 07:17:40;;;;;;;;;;;;;;;23.12;42.30;100595.56;4112592;28;19926;-67
2023/06/09 07:19:42;;;;;;;;;;;;;;;23.14;42.08;100602.50;4113024;28;19930;-67
2023/06/09 07:21:43;;;;;;;;;;;;;;;23.15;42.16;100606.03;4113197;28;20029;-66
2023/06/09 07:23:45;;;;;;;;;;;;;;;23.17;41.97;100604.06;4112935;28;19933;-67
2023/06/09 07:25:46;;;;;;;;;;;;;;;23.18;42.11;100613.81;4112300;28;20383;-67
2023/06/09 07:27:48;;;;;;;;;;;;;;;23.19;42.16;100615.53;4112588;28;19926;-66
2023/06/09 07:29:50;;;;;;;;;;;;;;;23.19;42.32;100620.88;4112714;28;20449;-67
2023/06/09 07:31:52;;;;;;;;;;;;;;;23.22;42.29;100619.75;4112514;28;19964;-67
2023/06/09 07:33:54;;;;;;;;;;;;;;;23.22;41.91;100612.56;4112980;28;19933;-67
2023/06/09 07:35:55;;;;;;;;;;;;;;;23.23;42.12;100619.66;4112186;28;19933;-67
2023/06/09 07:37:58;;;;;;;;;;;;;;;23.25;42.10;100619.50;4112907;28;19934;-67
2023/06/09 07:39:59;;;;;;;;;;;;;;;23.25;42.17;100623.00;4113152;28;19933;-67
2023/06/09 07:42:20;;;;;;;;;;;;;;;23.28;41.91;100628.13;4112971;28;19930;-67
2023/06/09 07:44:21;;;;;;;;;;;;;;;23.30;42.19;100622.59;4112803;28;20253;-68
2023/06/09 07:46:23;;;;;;;;;;;;;;;23.29;42.17;100619.09;4111743;28;20379;-66
2023/06/09 07:48:25;;;;;;;;;;;;;;;23.29;42.34;100619.09;4112678;28;19927;-67
2023/06/09 07:50:27;;;;;;;;;;;;;;;23.31;42.14;100615.38;4112709;28;20324;-66
2023/06/09 07:52:28;;;;;;;;;;;;;;;23.33;41.93;100608.91;4122416;28;19968;-66
2023/06/09 07:54:30;;;;;;;;;;;;;;;23.34;41.98;100617.81;4128801;28;19926;-66
2023/06/09 07:56:32;;;;;;;;;;;;;;;23.37;42.47;100617.53;4127650;28;19936;-68
2023/06/09 07:58:33;;;;;;;;;;;;;;;23.36;42.17;100613.16;4128745;28;19933;-67
2023/06/09 08:00:35;;;;;;;;;;;;;;;23.36;42.24;100616.66;4122203;28;19937;-66
2023/06/09 08:02:41;;;;;;;;;;;;;;;23.39;41.77;100615.53;4112634;28;19953;-67
2023/06/09 08:04:43;;;;;;;;;;;;;;;23.39;41.89;100611.03;4112669;28;19930;-67
2023/06/09 08:06:46;;;;;;;;;;;;;;;23.40;41.81;100607.38;4111344;28;19926;-66
2023/06/09 08:08:49;;;;;;;;;;;;;;;23.42;42.56;100605.38;4112667;28;19926;-67
2023/06/09 08:10:50;;;;;;;;;;;;;;;23.43;42.43;100607.06;4112442;28;19926;-67
2023/06/09 08:12:52;;;;;;;;;;;;;;;23.44;42.24;100602.56;4112430;28;19977;-67
2023/06/09 08:14:53;;;;;;;;;;;;;;;23.44;42.39;100605.25;4112152;28;19927;-67
2023/06/09 08:16:55;;;;;;;;;;;;;;;23.44;42.07;100598.03;4111547;28;19930;-66
2023/06/09 08:18:57;;;;;;;;;;;;;;;23.47;42.32;100598.75;4112563;28;19952;-66
2023/06/09 08:20:58;;;;;;;;;;;;;;;23.49;42.13;100602.13;4112589;28;19933;-65
2023/06/09 08:22:59;;;;;;;;;;;;;;;23.50;42.36;100599.31;4111394;28;19926;-67
2023/06/09 08:25:02;;;;;;;;;;;;;;;23.51;41.97;100589.41;4112381;28;19949;-67
2023/06/09 08:27:05;;;;;;;;;;;;;;;23.52;42.54;100591.09;4109955;28;19933;-67
2023/06/09 08:29:07;;;;;;;;;;;;;;;23.52;42.13;100585.75;4096400;28;19988;-66
2023/06/09 08:31:08;;;;;;;;;;;;;;;23.53;41.94;100587.44;4095973;29;19927;-67
2023/06/09 08:33:11;;;;;;;;;;;;;;;23.54;42.04;100592.66;4096139;28;20018;-66
2023/06/09 08:35:13;;;;;;;;;;;;;;;23.57;42.14;100587.00;4099028;28;19934;-67
2023/06/09 08:37:15;;;;;;;;;;;;;;;23.59;42.12;100592.22;4097976;28;20013;-67
2023/06/09 08:39:17;;;;;;;;;;;;;;;23.59;42.22;100587.69;4098891;28;20410;-67
2023/06/09 08:41:22;;;;;;;;;;;;;;;23.59;42.01;100582.31;4098966;29;20025;-67
2023/06/09 08:43:23;;;;;;;;;;;;;;;23.63;42.25;100579.38;4098924;29;19969;-67
2023/06/09 08:45:25;;;;;;;;;;;;;;;23.64;42.23;100576.53;4129374;28;20452;-67
2023/06/09 08:47:27;;;;;;;;;;;;;;;23.65;42.34;100575.56;4097987;28;20343;-67
2023/06/09 08:49:29;;;;;;;;;;;;;;;23.67;42.34;100575.41;4099073;29;20376;-67
2023/06/09 08:51:31;;;;;;;;;;;;;;;23.68;42.30;100575.28;4102486;28;20403;-67
2023/06/09 08:53:33;;;;;;;;;;;;;;;23.70;42.13;100577.81;4131069;28;19930;-67
2023/06/09 08:55:36;;;;;;;;;;;;;;;23.72;42.20;100573.13;4129745;28;19930;-67
2023/06/09 08:57:40;;;;;;;;;;;;;;;23.73;42.56;100572.13;4129634;28;19925;-67
2023/06/09 08:59:44;;;;;;;;;;;;;;;23.74;42.11;100568.47;4130545;28;19999;-68
2023/06/09 09:01:49;;;;;;;;;;;;;;;23.74;41.97;100569.31;4115253;28;20048;-67
2023/06/09 09:03:50;;;;;;;;;;;;;;;23.75;41.88;100572.84;4114672;28;19926;-67
2023/06/09 09:05:52;;;;;;;;;;;;;;;23.74;42.12;100572.00;4114445;28;20457;-67
2023/06/09 09:07:54;;;;;;;;;;;;;;;23.77;42.25;100570.88;4114290;28;19933;-67
2023/06/09 09:09:58;;;;;;;;;;;;;;;23.79;42.09;100563.50;4114774;28;19962;-67
2023/06/09 09:12:01;;;;;;;;;;;;;;;23.82;41.55;100571.28;4113326;28;20391;-67
2023/06/09 09:14:10;;;;;;;;;;;;;;;23.84;41.67;100568.44;4114243;28;20310;-67
2023/06/09 09:16:15;;;;;;;;;;;;;;;23.85;41.55;100567.44;4113631;28;20021;-67
2023/06/09 09:18:19;;;;;;;;;;;;;;;23.85;41.42;100573.69;4113148;28;19992;-67
2023/06/09 09:20:30;;;;;;;;;;;;;;;23.86;41.41;100567.28;4114662;28;19927;-67
2023/06/09 09:22:42;;;;;;;;;;;;;;;23.87;41.75;100570.84;4114401;28;19932;-67
2023/06/09 09:24:45;;;;;;;;;;;;;;;23.90;41.70;100566.03;4114578;28;20387;-67
2023/06/09 09:26:46;;;;;;;;;;;;;;;23.92;41.65;100564.06;4113454;28;19926;-67
2023/06/09 09:28:48;;;;;;;;;;;;;;;23.96;41.79;100561.09;4113754;28;19926;-67
2023/06/09 09:30:51;;;;;;;;;;;;;;;23.97;41.89;100562.78;4114503;28;19949;-66
2023/06/09 09:32:53;;;;;;;;;;;;;;;23.99;41.75;100552.75;4114493;28;19960;-66
2023/06/09 09:34:55;;;;;;;;;;;;;;;23.99;41.37;100548.22;4114155;28;19980;-66
2023/06/09 09:36:57;;;;;;;;;;;;;;;24.00;41.79;100549.91;4113265;28;20010;-66
2023/06/09 09:39:05;;;;;;;;;;;;;;;24.04;41.46;100561.22;4114213;28;19926;-66
2023/06/09 09:41:06;;;;;;;;;;;;;;;24.05;41.62;100555.69;4114353;28;19930;-66
2023/06/09 09:43:08;;;;;;;;;;;;;;;24.07;41.28;100552.84;4113878;28;19929;-66
2023/06/09 09:45:10;;;;;;;;;;;;;;;23.99;41.41;100534.78;4112925;28;19933;-67
2023/06/09 09:47:13;;;;;;;;;;;;;;;24.09;41.52;100542.81;4113232;28;20025;-66
2023/06/09 09:49:22;;;;;;;;;;;;;;;24.12;41.67;100539.84;4114129;28;20423;-66
2023/06/09 09:51:24;;;;;;;;;;;;;;;24.17;41.51;100544.75;4115313;28;19972;-66
2023/06/09 09:53:26;;;;;;;;;;;;;;;24.19;41.48;100553.53;4129966;28;20292;-67
2023/06/09 09:55:28;;;;;;;;;;;;;;;24.22;40.87;100543.31;4130142;28;20051;-67
2023/06/09 09:57:30;;;;;;;;;;;;;;;24.21;40.92;100540.78;4119972;28;20453;-68
2023/06/09 09:59:32;;;;;;;;;;;;;;;24.23;40.93;100544.19;4106972;28;20268;-70
2023/06/09 10:01:34;;;;;;;;;;;;;;;24.23;40.99;100533.44;4108678;28;20288;-68
2023/06/09 10:03:41;;;;;;;;;;;;;;;24.29;41.27;100538.22;4113269;28;20640;-68
2023/06/09 10:05:46;;;;;;;;;;;;;;;24.34;40.92;100533.22;4108930;28;20068;-67
2023/06/09 10:07:51;;;;;;;;;;;;;;;24.33;40.79;100531.53;4106885;28;19930;-68
2023/06/09 10:09:54;;;;;;;;;;;;;;;24.36;40.96;100536.63;4107911;28;20307;-67
2023/06/09 10:11:56;;;;;;;;;;;;;;;24.45;41.94;100528.63;4110337;28;19934;-65
2023/06/09 10:13:59;;;;;;;;;;;;;;;24.52;41.32;100537.78;4110570;28;19933;-67
2023/06/09 10:16:01;;;;;;;;;;;;;;;24.62;41.26;100533.22;4112113;28;19984;-69
2023/06/09 10:18:03;;;;;;;;;;;;;;;24.66;40.50;100534.63;4111594;28;19934;-59
2023/06/09 10:20:06;;;;;;;;;;;;;;;24.65;40.51;100527.53;4111658;28;19934;-61
2023/06/09 10:22:08;;;;;;;;;;;;;;;24.76;40.89;100528.34;4109828;28;19938;-58
2023/06/09 10:24:11;;;;;;;;;;;;;;;24.83;40.44;100522.19;4110887;28;19954;-61
2023/06/09 10:26:13;;;;;;;;;;;;;;;24.92;40.57;100536.56;4105885;28;20032;-63
2023/06/09 10:28:16;;;;;;;;;;;;;;;25.00;39.99;100527.75;4110872;28;19979;-61
2023/06/09 10:30:18;;;;;;;;;;;;;;;25.06;39.60;100524.44;4110855;28;19930;-60